Time;durP1;ratioP1;P1;durP2;ratioP2;P2;SDS_P1;SDS_P2;PMS_P1;PMS_P2;Temp;Humidity;BMP_temperature;BMP_pressure;BME280_temperature;BME280_humidity;BME280_pressure;Samples;Min_cycle;Max_cycle;Signal;HPM_P1;HPM_P2
2021/08/15 00:00:30;;;;;;;3.87;2.50;;;21.40;98.00;;;;;;5071750;28;20875;-75
2021/08/15 00:02:57;;;;;;;3.13;1.93;;;21.40;98.00;;;;;;5071740;28;20487;-75
2021/08/15 00:05:24;;;;;;;2.23;1.70;;;21.40;98.00;;;;;;5071727;28;20998;-75
2021/08/15 00:07:54;;;;;;;2.40;2.07;;;21.40;98.00;;;;;;5071566;28;20453;-75
2021/08/15 00:10:21;;;;;;;2.43;2.23;;;21.30;98.00;;;;;;5071750;28;20457;-75
2021/08/15 00:12:49;;;;;;;2.83;2.10;;;21.50;98.00;;;;;;5071617;28;20946;-75
2021/08/15 00:15:16;;;;;;;2.83;2.00;;;21.40;98.00;;;;;;5071569;28;20460;-75
2021/08/15 00:17:51;;;;;;;3.30;2.30;;;21.30;98.00;;;;;;5071421;28;20510;-75
2021/08/15 00:20:18;;;;;;;2.90;2.03;;;21.30;98.00;;;;;;5071264;28;21004;-75
2021/08/15 00:22:45;;;;;;;2.60;2.03;;;21.20;98.00;;;;;;5071452;28;20457;-75
2021/08/15 00:25:16;;;;;;;2.07;1.93;;;21.20;98.00;;;;;;5053642;28;20514;-75
2021/08/15 00:27:44;;;;;;;2.37;1.90;;;21.10;98.00;;;;;;5071301;28;20456;-75
2021/08/15 00:30:14;;;;;;;3.63;2.13;;;21.10;98.00;;;;;;5071189;28;20886;-75
2021/08/15 00:32:43;;;;;;;2.70;2.07;;;21.00;98.00;;;;;;5070771;28;20853;-75
2021/08/15 00:35:11;;;;;;;2.00;1.70;;;21.00;98.00;;;;;;5071072;28;20970;-75
2021/08/15 00:37:38;;;;;;;3.00;2.00;;;20.90;98.00;;;;;;5071013;28;20539;-75
2021/08/15 00:40:06;;;;;;;2.70;1.83;;;20.90;98.00;;;;;;5071148;28;20879;-75
2021/08/15 00:42:34;;;;;;;3.60;2.47;;;21.00;98.00;;;;;;5071052;28;20511;-75
2021/08/15 00:45:02;;;;;;;2.43;2.17;;;21.10;98.00;;;;;;5053256;28;20485;-75
2021/08/15 00:47:30;;;;;;;3.07;2.10;;;21.10;98.00;;;;;;5071007;28;20460;-75
2021/08/15 00:49:58;;;;;;;2.80;2.40;;;21.10;98.00;;;;;;5070881;28;20514;-75
2021/08/15 00:52:25;;;;;;;2.57;2.20;;;21.00;98.00;;;;;;5070846;28;20550;-75
2021/08/15 00:54:53;;;;;;;1.70;1.50;;;20.90;98.00;;;;;;5071038;28;20930;-75
2021/08/15 00:57:23;;;;;;;1.90;1.90;;;20.90;98.00;;;;;;5053118;28;20583;-75
2021/08/15 00:59:51;;;;;;;2.27;2.07;;;20.90;98.00;;;;;;5070946;28;20488;-75
2021/08/15 01:02:18;;;;;;;1.70;1.60;;;20.90;98.00;;;;;;5070704;28;20475;-75
2021/08/15 01:04:46;;;;;;;2.80;1.97;;;20.80;98.00;;;;;;5070843;28;20526;-75
2021/08/15 01:07:13;;;;;;;3.10;2.40;;;20.70;98.00;;;;;;5070743;28;20491;-75
2021/08/15 01:09:41;;;;;;;2.73;2.00;;;20.70;98.00;;;;;;5070704;28;20449;-75
2021/08/15 01:12:08;;;;;;;2.80;2.07;;;20.60;98.00;;;;;;5070623;28;20457;-75
2021/08/15 01:14:36;;;;;;;2.70;2.27;;;20.60;98.00;;;;;;5070741;28;20874;-75
2021/08/15 01:17:04;;;;;;;2.20;1.80;;;20.60;98.00;;;;;;5070693;28;20461;-75
2021/08/15 01:19:32;;;;;;;2.80;2.00;;;20.70;98.00;;;;;;5072055;28;20449;-75
2021/08/15 01:22:00;;;;;;;2.07;1.60;;;20.70;98.00;;;;;;5074882;28;20456;-75
2021/08/15 01:24:28;;;;;;;3.07;1.90;;;20.90;98.00;;;;;;5075032;28;20798;-75
2021/08/15 01:26:56;;;;;;;2.13;1.63;;;20.90;98.00;;;;;;5074872;28;20465;-75
2021/08/15 01:29:25;;;;;;;2.63;1.83;;;20.80;98.00;;;;;;5075075;28;20465;-75
2021/08/15 01:31:52;;;;;;;2.27;1.90;;;20.80;98.00;;;;;;5074583;28;20476;-75
2021/08/15 01:34:19;;;;;;;3.03;1.97;;;20.80;98.00;;;;;;5074607;28;20480;-75
2021/08/15 01:36:46;;;;;;;1.93;1.80;;;20.60;98.00;;;;;;5074484;28;20816;-75
2021/08/15 01:39:13;;;;;;;2.40;1.83;;;20.60;98.00;;;;;;5074850;28;20514;-75
2021/08/15 01:41:40;;;;;;;2.20;2.03;;;20.40;98.00;;;;;;5074627;28;20500;-75
2021/08/15 01:44:07;;;;;;;2.70;2.40;;;20.30;98.00;;;;;;5074641;28;20488;-75
2021/08/15 01:46:36;;;;;;;2.80;2.10;;;20.20;98.00;;;;;;5074363;28;20457;-75
2021/08/15 01:49:03;;;;;;;2.97;2.17;;;20.40;98.00;;;;;;5074537;28;20457;-75
2021/08/15 01:51:31;;;;;;;2.57;2.37;;;20.30;98.00;;;;;;5074388;28;20522;-75
2021/08/15 01:54:02;;;;;;;2.10;1.60;;;20.30;98.00;;;;;;5075241;28;20480;-75
2021/08/15 01:56:30;;;;;;;3.07;2.23;;;20.20;98.00;;;;;;5074654;28;20506;-74
2021/08/15 01:58:57;;;;;;;2.13;1.93;;;20.10;98.00;;;;;;5074459;28;20544;-75
2021/08/15 02:01:25;;;;;;;1.90;1.73;;;20.10;98.00;;;;;;5040849;28;21030;-75
2021/08/15 02:03:54;;;;;;;2.37;2.17;;;20.20;98.00;;;;;;5075247;28;20453;-75
2021/08/15 02:06:21;;;;;;;2.20;1.93;;;20.10;98.00;;;;;;5056008;28;20461;-75
2021/08/15 02:08:50;;;;;;;1.90;1.70;;;20.10;98.00;;;;;;5074028;28;20514;-75
2021/08/15 02:11:17;;;;;;;3.10;2.00;;;20.00;98.00;;;;;;5073854;28;20943;-75
2021/08/15 02:13:45;;;;;;;2.33;1.70;;;19.90;98.00;;;;;;5073903;28;20487;-75
2021/08/15 02:16:12;;;;;;;1.87;1.67;;;19.80;98.00;;;;;;5073842;28;20480;-75
2021/08/15 02:18:39;;;;;;;2.67;1.90;;;19.80;98.00;;;;;;5073713;28;20973;-75
2021/08/15 02:21:09;;;;;;;2.50;2.17;;;19.80;98.00;;;;;;5056098;28;20812;-75
2021/08/15 02:23:36;;;;;;;1.83;1.70;;;19.80;98.00;;;;;;5073742;28;20468;-74
2021/08/15 02:26:03;;;;;;;2.30;1.60;;;19.80;98.00;;;;;;5073610;28;20550;-75
2021/08/15 02:28:30;;;;;;;1.90;1.70;;;19.90;98.00;;;;;;5073652;28;20543;-75
2021/08/15 02:30:58;;;;;;;2.17;1.77;;;19.80;98.00;;;;;;5073196;28;20878;-75
2021/08/15 02:33:25;;;;;;;1.73;1.70;;;19.90;98.00;;;;;;5055426;28;21010;-75
2021/08/15 02:35:53;;;;;;;2.43;1.90;;;19.80;98.00;;;;;;5073516;28;20453;-75
2021/08/15 02:38:22;;;;;;;2.93;2.20;;;19.80;98.00;;;;;;5073516;28;20456;-75
2021/08/15 02:40:49;;;;;;;2.30;1.93;;;19.80;98.00;;;;;;5073328;28;20485;-75
2021/08/15 02:43:16;;;;;;;2.17;1.70;;;19.70;98.00;;;;;;5073419;28;20554;-75
2021/08/15 02:45:43;;;;;;;2.33;1.93;;;19.70;98.00;;;;;;5073180;28;20892;-75
2021/08/15 02:48:10;;;;;;;3.60;2.40;;;19.70;98.00;;;;;;5073330;28;20537;-75
2021/08/15 02:50:37;;;;;;;3.00;2.40;;;19.70;98.00;;;;;;5073262;28;20493;-75
2021/08/15 02:53:04;;;;;;;2.23;2.03;;;19.70;98.00;;;;;;5073331;28;20495;-75
2021/08/15 02:55:32;;;;;;;2.90;2.60;;;19.70;98.00;;;;;;5073308;28;20947;-76
2021/08/15 02:58:00;;;;;;;2.53;2.20;;;19.60;98.00;;;;;;5073158;28;20535;-75
2021/08/15 03:00:27;;;;;;;2.50;1.87;;;19.50;98.00;;;;;;5072493;28;20488;-75
2021/08/15 03:02:55;;;;;;;2.63;1.77;;;19.50;98.00;;;;;;5073052;28;20523;-75
2021/08/15 03:05:22;;;;;;;3.83;2.37;;;19.50;98.00;;;;;;5072862;28;20492;-74
2021/08/15 03:07:49;;;;;;;2.80;1.60;;;19.60;98.00;;;;;;5072944;28;20457;-75
2021/08/15 03:10:16;;;;;;;2.80;1.90;;;19.60;98.00;;;;;;5072803;28;20492;-75
2021/08/15 03:12:45;;;;;;;1.97;1.83;;;19.70;98.00;;;;;;5072551;28;20882;-75
2021/08/15 03:15:13;;;;;;;3.30;2.10;;;19.60;98.00;;;;;;5072720;28;20579;-75
2021/08/15 03:17:40;;;;;;;3.17;1.83;;;19.50;98.00;;;;;;5072660;28;20457;-75
2021/08/15 03:20:08;;;;;;;3.83;2.33;;;19.40;98.00;;;;;;5072699;28;20457;-75
2021/08/15 03:22:35;;;;;;;2.53;1.90;;;19.40;98.00;;;;;;5072443;28;20488;-74
2021/08/15 03:25:03;;;;;;;2.77;2.20;;;19.50;98.00;;;;;;5072741;28;20704;-75
2021/08/15 03:27:30;;;;;;;1.87;1.80;;;19.60;98.00;;;;;;5072424;28;20492;-75
2021/08/15 03:29:58;;;;;;;1.50;1.43;;;19.50;98.00;;;;;;5072432;28;20461;-75
2021/08/15 03:32:25;;;;;;;2.90;2.17;;;19.50;98.00;;;;;;5072191;28;20460;-75
2021/08/15 03:34:52;;;;;;;3.23;2.23;;;19.50;98.00;;;;;;5072212;28;20570;-74
2021/08/15 03:37:19;;;;;;;1.90;1.47;;;19.50;98.00;;;;;;5072319;28;20488;-75
2021/08/15 03:39:46;;;;;;;2.27;2.13;;;19.50;98.00;;;;;;5072112;28;20525;-75
2021/08/15 03:42:13;;;;;;;2.10;1.80;;;19.40;98.00;;;;;;5071522;28;20503;-75
2021/08/15 03:44:40;;;;;;;3.00;2.10;;;19.30;98.00;;;;;;5054072;28;20511;-74
2021/08/15 03:47:09;;;;;;;2.13;1.97;;;19.40;98.00;;;;;;5072036;28;20493;-74
2021/08/15 03:49:36;;;;;;;2.70;2.00;;;19.40;98.00;;;;;;5072051;28;20906;-74
2021/08/15 03:52:04;;;;;;;2.50;1.67;;;19.50;98.00;;;;;;5071973;28;20598;-75
2021/08/15 03:54:31;;;;;;;2.80;1.90;;;19.60;98.00;;;;;;5071811;28;20547;-76
2021/08/15 03:56:58;;;;;;;2.20;2.00;;;19.60;98.00;;;;;;5071782;28;20457;-75
2021/08/15 03:59:25;;;;;;;2.30;2.07;;;19.50;98.00;;;;;;5071613;28;20484;-74
2021/08/15 04:01:52;;;;;;;2.00;1.80;;;19.60;98.00;;;;;;5071621;28;20484;-75
2021/08/15 04:04:20;;;;;;;3.03;2.00;;;19.70;98.00;;;;;;5071883;28;20495;-74
2021/08/15 04:06:47;;;;;;;2.17;1.67;;;19.60;98.00;;;;;;5071702;28;20495;-75
2021/08/15 04:09:14;;;;;;;2.47;2.10;;;19.50;98.00;;;;;;5071762;28;20518;-75
2021/08/15 04:11:41;;;;;;;4.10;2.27;;;19.40;98.00;;;;;;5071701;28;20496;-75
2021/08/15 04:14:08;;;;;;;2.37;1.73;;;19.30;98.00;;;;;;5054287;28;20545;-75
2021/08/15 04:16:35;;;;;;;2.87;2.33;;;19.20;98.00;;;;;;5071548;28;20480;-74
2021/08/15 04:19:03;;;;;;;3.30;1.67;;;19.20;98.00;;;;;;5071555;28;20457;-75
2021/08/15 04:21:31;;;;;;;2.13;2.00;;;19.20;98.00;;;;;;5071398;28;20484;-74
2021/08/15 04:23:59;;;;;;;2.40;1.70;;;19.30;98.00;;;;;;5071458;28;21142;-74
2021/08/15 04:26:26;;;;;;;2.07;1.97;;;19.30;98.00;;;;;;5071388;28;20489;-75
2021/08/15 04:28:55;;;;;;;2.57;2.17;;;19.30;98.00;;;;;;5071312;28;20505;-75
2021/08/15 04:31:22;;;;;;;1.93;1.53;;;19.40;98.00;;;;;;5071075;28;20488;-74
2021/08/15 04:33:49;;;;;;;1.93;1.90;;;19.30;98.00;;;;;;5053412;28;20860;-75
2021/08/15 04:36:16;;;;;;;2.47;1.97;;;19.20;98.00;;;;;;5071274;28;20557;-75
2021/08/15 04:38:45;;;;;;;2.20;1.70;;;19.20;98.00;;;;;;5071216;28;20489;-75
2021/08/15 04:41:12;;;;;;;3.40;2.43;;;19.20;98.00;;;;;;5070983;28;20457;-75
2021/08/15 04:43:39;;;;;;;2.47;1.97;;;19.20;98.00;;;;;;5070970;28;20445;-75
2021/08/15 04:46:06;;;;;;;2.43;1.83;;;19.30;98.00;;;;;;5071065;28;20457;-75
2021/08/15 04:48:33;;;;;;;4.10;2.10;;;19.30;98.00;;;;;;5071059;28;20506;-75
2021/08/15 04:51:00;;;;;;;1.87;1.50;;;19.40;98.00;;;;;;5070861;28;20489;-75
2021/08/15 04:53:28;;;;;;;2.33;2.03;;;19.40;98.00;;;;;;5070945;28;20495;-75
2021/08/15 04:55:56;;;;;;;3.30;2.20;;;19.30;98.00;;;;;;5070868;28;21091;-75
2021/08/15 04:58:23;;;;;;;2.63;2.40;;;19.20;98.00;;;;;;5070939;28;20514;-75
2021/08/15 05:00:50;;;;;;;2.53;1.83;;;19.20;98.00;;;;;;5071015;28;20488;-74
2021/08/15 05:03:18;;;;;;;2.53;2.00;;;19.20;98.00;;;;;;5053411;28;20741;-75
2021/08/15 05:05:45;;;;;;;2.27;2.03;;;19.20;98.00;;;;;;5070772;28;20457;-75
2021/08/15 05:08:13;;;;;;;1.83;1.73;;;19.20;98.00;;;;;;5071112;28;20882;-75
2021/08/15 05:10:42;;;;;;;2.10;1.93;;;19.40;98.00;;;;;;5070775;28;20461;-75
2021/08/15 05:13:10;;;;;;;1.97;1.77;;;19.50;98.00;;;;;;5070863;28;20543;-75
2021/08/15 05:15:38;;;;;;;2.20;2.00;;;19.50;98.00;;;;;;5070681;28;20520;-75
2021/08/15 05:18:05;;;;;;;2.47;1.97;;;19.50;98.00;;;;;;5070765;28;20465;-75
2021/08/15 05:20:33;;;;;;;3.20;1.83;;;19.50;98.00;;;;;;5070661;28;20461;-75
2021/08/15 05:23:01;;;;;;;2.73;2.00;;;19.50;98.00;;;;;;5070769;28;20499;-75
2021/08/15 05:25:28;;;;;;;2.07;1.93;;;19.50;98.00;;;;;;5070727;28;20449;-74
2021/08/15 05:27:55;;;;;;;3.33;2.33;;;19.50;98.00;;;;;;5070840;28;20492;-75
2021/08/15 05:30:24;;;;;;;3.00;2.27;;;19.70;98.00;;;;;;5070699;28;20511;-74
2021/08/15 05:32:54;;;;;;;2.23;2.03;;;19.70;98.00;;;;;;5070671;28;20485;-75
2021/08/15 05:35:21;;;;;;;3.63;2.33;;;19.70;98.00;;;;;;5070836;28;20876;-75
2021/08/15 05:37:48;;;;;;;2.80;2.10;;;19.90;98.00;;;;;;5070651;28;20465;-75
2021/08/15 05:40:15;;;;;;;1.70;1.60;;;19.90;98.00;;;;;;5070620;28;20456;-75
2021/08/15 05:42:42;;;;;;;2.30;2.10;;;19.90;98.00;;;;;;5070487;28;20460;-75
2021/08/15 05:45:11;;;;;;;2.30;1.50;;;19.90;98.00;;;;;;5070649;28;20955;-75
2021/08/15 05:47:40;;;;;;;3.27;1.50;;;19.80;98.00;;;;;;5070449;28;21021;-75
2021/08/15 05:50:09;;;;;;;3.00;2.23;;;19.80;98.00;;;;;;5070503;28;20861;-75
2021/08/15 05:52:36;;;;;;;3.10;2.13;;;19.80;98.00;;;;;;5070481;28;20456;-75
2021/08/15 05:55:04;;;;;;;2.80;1.60;;;19.70;98.00;;;;;;5052600;28;20516;-76
2021/08/15 05:57:31;;;;;;;2.80;2.17;;;19.60;98.00;;;;;;5070159;28;20542;-75
2021/08/15 05:59:58;;;;;;;2.77;1.80;;;19.60;98.00;;;;;;5070320;28;20457;-74
2021/08/15 06:02:24;;;;;;;2.40;1.83;;;19.80;98.00;;;;;;5070343;28;20909;-75
2021/08/15 06:04:54;;;;;;;3.57;2.40;;;19.90;98.00;;;;;;5070696;28;20449;-76
2021/08/15 06:07:20;;;;;;;4.17;1.90;;;20.00;98.00;;;;;;5056225;28;20495;-75
2021/08/15 06:09:47;;;;;;;3.73;2.80;;;20.20;98.00;;;;;;5074000;28;20484;-75
2021/08/15 06:12:14;;;;;;;2.23;2.10;;;20.20;98.00;;;;;;5073999;28;20757;-75
2021/08/15 06:14:41;;;;;;;1.70;1.70;;;20.30;98.00;;;;;;5073770;28;21229;-75
2021/08/15 06:17:08;;;;;;;4.20;2.50;;;20.60;98.00;;;;;;5073874;28;20545;-75
2021/08/15 06:19:36;;;;;;;2.60;2.40;;;20.70;98.00;;;;;;5073730;28;20498;-75
2021/08/15 06:22:04;;;;;;;1.77;1.67;;;20.80;98.00;;;;;;5073689;28;20510;-75
2021/08/15 06:24:31;;;;;;;2.60;2.30;;;20.90;98.00;;;;;;5073844;28;20484;-76
2021/08/15 06:26:59;;;;;;;3.10;2.07;;;21.00;98.00;;;;;;5073623;28;20452;-75
2021/08/15 06:29:27;;;;;;;2.50;2.30;;;21.10;98.00;;;;;;5073745;28;21024;-76
2021/08/15 06:31:55;;;;;;;2.93;1.90;;;21.10;98.00;;;;;;5073350;28;20522;-77
2021/08/15 06:34:22;;;;;;;3.57;2.70;;;21.10;98.00;;;;;;5073646;28;20887;-76
2021/08/15 06:36:49;;;;;;;3.63;2.27;;;21.20;98.00;;;;;;5073366;28;20480;-75
2021/08/15 06:39:17;;;;;;;2.20;1.70;;;21.30;98.00;;;;;;5073477;28;20488;-76
2021/08/15 06:41:44;;;;;;;3.07;2.10;;;21.40;98.00;;;;;;5073397;28;20518;-76
2021/08/15 06:44:12;;;;;;;3.30;2.57;;;21.50;98.00;;;;;;5073654;28;20493;-76
2021/08/15 06:46:39;;;;;;;2.80;1.90;;;21.60;98.00;;;;;;5073336;28;20538;-76
2021/08/15 06:49:06;;;;;;;2.00;1.77;;;21.80;98.00;;;;;;5073571;28;20457;-75
2021/08/15 06:51:33;;;;;;;2.33;2.00;;;22.00;98.00;;;;;;5073438;28;20496;-76
2021/08/15 06:54:00;;;;;;;2.50;2.27;;;22.30;98.00;;;;;;5073450;28;20881;-75
2021/08/15 06:56:28;;;;;;;1.77;1.47;;;22.60;98.00;;;;;;5073020;28;20461;-75
2021/08/15 06:58:55;;;;;;;2.90;1.80;;;22.90;98.00;;;;;;5073196;28;20958;-76
2021/08/15 07:01:24;;;;;;;2.27;1.83;;;23.00;98.00;;;;;;5072991;28;20560;-75
2021/08/15 07:03:51;;;;;;;3.70;2.77;;;23.20;98.00;;;;;;5072992;28;20492;-77
2021/08/15 07:06:18;;;;;;;5.20;2.33;;;23.40;98.00;;;;;;5072957;28;20503;-75
2021/08/15 07:08:45;;;;;;;1.80;1.63;;;23.40;98.00;;;;;;5072882;28;20449;-76
2021/08/15 07:11:12;;;;;;;2.70;1.90;;;23.60;98.00;;;;;;5072851;28;20485;-76
2021/08/15 07:13:41;;;;;;;3.73;2.00;;;23.70;98.00;;;;;;5072838;28;20876;-76
2021/08/15 07:16:08;;;;;;;2.60;2.27;;;23.90;98.00;;;;;;5072374;28;20914;-75
2021/08/15 07:18:34;;;;;;;3.20;2.27;;;24.10;98.00;;;;;;5071988;28;20461;-75
2021/08/15 07:21:02;;;;;;;2.97;2.23;;;24.20;98.00;;;;;;5072759;28;20488;-76
2021/08/15 07:23:29;;;;;;;1.97;1.83;;;24.40;98.00;;;;;;5054997;28;20463;-76
2021/08/15 07:25:56;;;;;;;2.77;2.27;;;24.50;98.00;;;;;;5072524;28;20523;-74
2021/08/15 07:28:24;;;;;;;3.33;2.50;;;24.50;98.00;;;;;;5072220;28;20892;-75
2021/08/15 07:30:53;;;;;;;3.77;2.83;;;24.30;98.00;;;;;;5072411;28;20520;-75
2021/08/15 07:33:20;;;;;;;2.63;2.50;;;24.40;98.00;;;;;;5072300;28;20468;-75
2021/08/15 07:35:48;;;;;;;2.57;1.90;;;24.30;98.00;;;;;;5072314;28;20476;-74
2021/08/15 07:38:15;;;;;;;2.80;2.13;;;24.20;98.00;;;;;;5072360;28;21058;-75
2021/08/15 07:40:42;;;;;;;2.00;1.93;;;24.10;98.00;;;;;;5054554;28;20477;-75
2021/08/15 07:43:10;;;;;;;2.47;2.00;;;24.20;98.00;;;;;;5082603;28;21017;-76
2021/08/15 07:45:38;;;;;;;3.20;2.50;;;24.40;98.00;;;;;;5073712;28;20492;-76
2021/08/15 07:48:07;;;;;;;5.57;3.17;;;24.70;98.00;;;;;;5070244;28;20480;-74
2021/08/15 07:50:38;;;;;;;2.97;2.13;;;24.70;98.00;;;;;;5069371;28;20453;-72
2021/08/15 07:53:22;;;;;;;3.77;2.40;;;24.70;98.00;;;;;;5070843;28;20939;-73
2021/08/15 07:55:50;;;;;;;4.23;2.77;;;24.80;98.00;;;;;;5078552;28;20597;-75
2021/08/15 07:58:17;;;;;;;3.00;2.33;;;24.80;98.00;;;;;;5078957;28;20487;-77
2021/08/15 08:00:45;;;;;;;2.13;1.73;;;24.70;98.00;;;;;;5071212;28;20477;-76
2021/08/15 08:03:15;;;;;;;2.67;2.07;;;24.70;98.00;;;;;;5086793;28;20543;-75
2021/08/15 08:05:42;;;;;;;3.40;2.13;;;24.90;98.00;;;;;;5087411;28;20937;-76
2021/08/15 08:08:09;;;;;;;2.70;2.27;;;24.90;98.00;;;;;;5080097;28;20452;-75
2021/08/15 08:10:36;;;;;;;3.27;2.50;;;25.00;98.00;;;;;;5078646;28;20444;-75
2021/08/15 08:13:07;;;;;;;4.57;3.07;;;25.10;98.00;;;;;;5079347;28;20448;-75
2021/08/15 08:15:34;;;;;;;2.93;2.10;;;25.20;98.00;;;;;;5068657;28;20516;-75
2021/08/15 08:18:01;;;;;;;4.27;2.70;;;25.10;98.00;;;;;;5078488;28;20554;-75
2021/08/15 08:20:32;;;;;;;4.17;2.50;;;25.20;98.00;;;;;;5079316;28;20536;-75
2021/08/15 08:22:59;;;;;;;4.13;2.30;;;25.30;98.00;;;;;;5068446;28;20460;-75
2021/08/15 08:25:26;;;;;;;3.83;2.60;;;25.30;98.00;;;;;;5086806;28;21018;-75
2021/08/15 08:27:53;;;;;;;4.20;2.50;;;25.40;98.00;;;;;;5087613;28;20954;-76
2021/08/15 08:30:20;;;;;;;4.20;2.40;;;25.40;98.00;;;;;;5078474;28;20447;-75
2021/08/15 08:32:47;;;;;;;4.60;2.43;;;25.40;98.00;;;;;;5077779;28;20540;-76
2021/08/15 08:35:14;;;;;;;3.80;2.83;;;25.50;98.00;;;;;;5078224;28;20501;-76
2021/08/15 08:37:44;;;;;;;4.87;2.80;;;25.50;98.00;;;;;;5087224;28;20946;-76
2021/08/15 08:40:13;;;;;;;2.77;1.93;;;25.60;98.00;;;;;;5070800;28;20449;-76
2021/08/15 08:42:40;;;;;;;4.53;2.30;;;25.70;98.00;;;;;;5060943;28;20485;-77
2021/08/15 08:45:08;;;;;;;3.73;2.80;;;25.70;98.00;;;;;;5077888;28;20484;-76
2021/08/15 08:47:35;;;;;;;2.77;2.27;;;25.80;98.00;;;;;;5069738;28;20747;-76
2021/08/15 08:50:03;;;;;;;3.50;2.37;;;25.80;98.00;;;;;;5074415;28;20822;-77
2021/08/15 08:52:30;;;;;;;3.87;2.23;;;25.90;98.00;;;;;;5080730;28;20530;-77
2021/08/15 08:55:05;;;;;;;3.50;2.50;;;26.00;98.00;;;;;;5078557;28;20885;-77
2021/08/15 08:57:32;;;;;;;3.73;2.60;;;26.20;98.00;;;;;;5085681;28;21042;-78
2021/08/15 09:00:00;;;;;;;4.87;2.47;;;26.30;98.00;;;;;;5078860;28;20556;-76
2021/08/15 09:02:27;;;;;;;4.07;2.70;;;26.50;98.00;;;;;;5070059;28;20481;-76
2021/08/15 09:04:54;;;;;;;3.27;1.97;;;26.70;98.00;;;;;;5070383;28;20506;-76
2021/08/15 09:07:23;;;;;;;3.80;2.57;;;27.00;98.00;;;;;;5076805;28;20479;-77
2021/08/15 09:09:52;;;;;;;2.83;2.50;;;27.20;98.00;;;;;;5079274;28;20881;-77
2021/08/15 09:12:21;;;;;;;4.13;2.90;;;27.20;98.00;;;;;;5084642;28;20492;-76
2021/08/15 09:14:48;;;;;;;4.13;2.37;;;27.20;98.00;;;;;;5076939;28;21035;-78
2021/08/15 09:17:16;;;;;;;6.53;3.03;;;27.20;98.00;;;;;;5065549;28;20503;-74
2021/08/15 09:19:47;;;;;;;3.20;2.60;;;27.20;98.00;;;;;;5077233;28;20465;-76
2021/08/15 09:22:17;;;;;;;4.47;2.67;;;27.20;98.00;;;;;;5077571;28;20461;-73
2021/08/15 09:25:03;;;;;;;2.47;2.13;;;27.40;98.00;;;;;;5077438;28;20461;-76
2021/08/15 09:27:33;;;;;;;4.60;2.67;;;27.60;98.00;;;;;;5062246;28;20481;-76
2021/08/15 09:30:21;;;;;;;5.07;3.10;;;27.70;98.00;;;;;;5077720;28;20544;-76
2021/08/15 09:32:55;;;;;;;3.13;2.60;;;27.70;98.00;;;;;;5071809;28;20517;-76
2021/08/15 09:35:27;;;;;;;3.70;2.70;;;27.90;98.00;;;;;;5085550;28;20515;-74
2021/08/15 09:37:57;;;;;;;5.80;3.60;;;28.00;98.00;;;;;;5074241;28;20445;-77
2021/08/15 09:40:27;;;;;;;3.67;2.63;;;28.00;98.00;;;;;;5078610;28;20502;-76
2021/08/15 09:42:56;;;;;;;4.00;2.57;;;28.20;98.00;;;;;;5073892;28;20488;-76
2021/08/15 09:45:46;;;;;;;4.37;2.90;;;28.50;98.00;;;;;;5078927;28;20724;-76
2021/08/15 09:48:24;;;;;;;3.87;2.70;;;28.70;98.00;;;;;;5082313;28;20480;-77
2021/08/15 09:51:19;;;;;;;3.80;3.07;;;28.90;98.00;;;;;;5084268;28;20454;-79
2021/08/15 09:53:59;;;;;;;3.37;2.60;;;29.00;98.00;;;;;;5073573;28;20464;-77
2021/08/15 09:56:33;;;;;;;3.70;3.00;;;29.20;98.00;;;;;;5077697;28;20981;-76
2021/08/15 09:59:12;;;;;;;4.80;2.97;;;29.30;97.60;;;;;;5076460;28;20900;-77
2021/08/15 10:01:41;;;;;;;3.40;2.80;;;29.40;97.60;;;;;;5079475;28;20999;-76
2021/08/15 10:04:08;;;;;;;6.13;2.80;;;29.30;97.00;;;;;;5089415;28;20459;-75
2021/08/15 10:06:37;;;;;;;5.23;3.20;;;29.40;96.60;;;;;;5090028;28;20452;-75
2021/08/15 10:09:05;;;;;;;3.70;2.23;;;29.50;96.70;;;;;;5074799;28;20448;-75
2021/08/15 10:11:33;;;;;;;4.20;2.97;;;29.70;96.80;;;;;;5081361;28;20553;-76
2021/08/15 10:14:00;;;;;;;4.33;3.07;;;29.80;96.00;;;;;;5087875;28;20547;-75
2021/08/15 10:16:31;;;;;;;3.67;2.60;;;30.00;94.50;;;;;;5074903;28;20527;-76
2021/08/15 10:19:02;;;;;;;5.27;3.17;;;29.90;94.90;;;;;;5072987;28;20452;-76
2021/08/15 10:21:30;;;;;;;3.97;2.70;;;29.80;95.10;;;;;;5072794;28;20943;-76
2021/08/15 10:24:07;;;;;;;4.73;2.93;;;29.80;93.80;;;;;;5072620;28;20935;-75
2021/08/15 10:26:46;;;;;;;3.90;2.70;;;29.90;95.20;;;;;;5089595;28;20544;-75
2021/08/15 10:29:41;;;;;;;4.60;3.10;;;29.90;94.00;;;;;;5080699;28;20484;-76
2021/08/15 10:32:27;;;;;;;3.47;2.50;;;30.00;93.40;;;;;;5032191;28;20861;-75
2021/08/15 10:35:12;;;;;;;3.50;2.73;;;30.10;94.40;;;;;;5084691;28;20488;-76
2021/08/15 10:37:39;;;;;;;3.27;2.50;;;30.10;93.20;;;;;;5081594;28;20534;-78
2021/08/15 10:40:12;;;;;;;3.37;2.53;;;30.20;93.40;;;;;;5081667;28;20556;-76
2021/08/15 10:42:47;;;;;;;4.27;3.13;;;30.50;93.10;;;;;;5056787;28;20982;-78
2021/08/15 10:45:22;;;;;;;3.60;2.80;;;30.40;93.40;;;;;;5072786;28;20486;-74
2021/08/15 10:48:26;;;;;;;2.93;2.33;;;30.10;93.00;;;;;;5065455;28;20488;-76
2021/08/15 10:50:59;;;;;;;4.20;3.03;;;30.10;93.80;;;;;;5077884;28;20524;-76
2021/08/15 10:53:49;;;;;;;5.27;3.33;;;30.00;92.40;;;;;;5078893;28;20474;-76
2021/08/15 10:56:57;;;;;;;6.20;2.60;;;29.90;93.60;;;;;;5075864;28;20488;-77
2021/08/15 10:59:35;;;;;;;4.00;2.50;;;29.80;95.20;;;;;;5080605;28;20819;-76
2021/08/15 11:02:09;;;;;;;3.70;2.70;;;29.90;96.00;;;;;;5079916;28;20505;-75
2021/08/15 11:04:37;;;;;;;5.10;2.60;;;30.40;94.70;;;;;;5080475;28;20486;-75
2021/08/15 11:07:04;;;;;;;4.60;3.10;;;30.80;91.00;;;;;;5080905;28;20492;-75
2021/08/15 11:09:56;;;;;;;4.93;2.97;;;31.00;91.10;;;;;;5082426;28;20448;-75
2021/08/15 11:12:25;;;;;;;4.23;2.87;;;31.20;90.90;;;;;;5079862;28;21035;-76
2021/08/15 11:15:01;;;;;;;4.97;3.13;;;31.30;89.50;;;;;;5080342;28;21005;-75
2021/08/15 11:17:30;;;;;;;2.77;2.60;;;31.10;90.40;;;;;;5064964;28;20488;-75
2021/08/15 11:20:18;;;;;;;6.10;3.27;;;31.00;92.10;;;;;;5087792;28;20486;-75
2021/08/15 11:22:46;;;;;;;3.93;2.67;;;30.70;92.10;;;;;;5075307;28;20451;-77
2021/08/15 11:25:13;;;;;;;11.53;3.33;;;30.50;92.00;;;;;;5077636;28;20816;-76
2021/08/15 11:27:43;;;;;;;4.47;2.60;;;30.30;92.70;;;;;;5082680;28;20468;-76
2021/08/15 11:30:13;;;;;;;3.80;2.57;;;29.90;91.50;;;;;;5078782;28;20448;-76
2021/08/15 11:32:41;;;;;;;4.53;3.53;;;29.70;92.80;;;;;;5087900;28;20826;-77
2021/08/15 11:35:10;;;;;;;3.80;2.57;;;29.60;94.20;;;;;;5088297;28;21058;-76
2021/08/15 11:37:39;;;;;;;5.63;3.43;;;29.70;93.70;;;;;;5080940;28;21007;-77
2021/08/15 11:40:17;;;;;;;4.40;2.90;;;29.80;94.70;;;;;;5077272;28;20506;-76
2021/08/15 11:42:58;;;;;;;3.93;2.80;;;30.30;93.30;;;;;;5084896;28;20488;-76
2021/08/15 11:45:39;;;;;;;5.50;3.30;;;30.50;93.70;;;;;;5089299;28;20456;-76
2021/08/15 11:48:08;;;;;;;3.70;2.40;;;30.50;92.40;;;;;;5071659;28;20970;-76
2021/08/15 11:50:36;;;;;;;5.30;2.83;;;30.40;92.10;;;;;;5078672;28;20543;-77
2021/08/15 11:53:04;;;;;;;5.10;2.77;;;30.30;92.50;;;;;;5091422;28;20487;-77
2021/08/15 11:55:31;;;;;;;3.80;2.67;;;30.10;91.80;;;;;;5091415;28;20544;-77
2021/08/15 11:58:01;;;;;;;4.93;3.17;;;29.80;92.80;;;;;;5092256;28;20538;-76
2021/08/15 12:00:31;;;;;;;4.83;3.70;;;29.60;94.80;;;;;;5092219;28;20484;-76
2021/08/15 12:03:07;;;;;;;7.20;3.80;;;29.30;95.90;;;;;;5091687;28;20488;-76
2021/08/15 12:05:38;;;;;;;4.43;3.00;;;29.10;96.70;;;;;;5092439;28;20486;-76
2021/08/15 12:08:07;;;;;;;5.07;3.10;;;28.90;96.90;;;;;;5092367;28;20849;-76
2021/08/15 12:10:47;;;;;;;4.10;2.63;;;28.70;97.50;;;;;;5092280;28;20448;-75
2021/08/15 12:13:24;;;;;;;4.93;2.90;;;28.60;98.00;;;;;;5074038;28;20459;-76
2021/08/15 12:15:54;;;;;;;4.20;2.97;;;28.50;98.00;;;;;;5092065;28;20483;-75
2021/08/15 12:18:30;;;;;;;4.57;2.70;;;28.40;98.00;;;;;;5091742;28;20582;-75
2021/08/15 12:21:02;;;;;;;5.63;3.23;;;28.20;98.00;;;;;;5091942;28;20515;-76
2021/08/15 12:23:29;;;;;;;3.40;2.70;;;28.10;98.00;;;;;;5091812;28;20482;-76
2021/08/15 12:26:07;;;;;;;4.60;3.10;;;27.90;98.00;;;;;;5092293;28;20537;-75
2021/08/15 12:28:37;;;;;;;3.93;2.50;;;27.80;98.00;;;;;;5092360;28;20528;-76
2021/08/15 12:31:21;;;;;;;3.30;2.17;;;27.60;98.00;;;;;;5091933;28;20509;-75
2021/08/15 12:33:49;;;;;;;2.97;2.20;;;27.50;98.00;;;;;;5091991;28;20522;-75
2021/08/15 12:36:21;;;;;;;4.50;2.63;;;27.40;98.00;;;;;;5091665;28;20484;-75
2021/08/15 12:38:49;;;;;;;3.60;2.20;;;27.40;98.00;;;;;;5091547;28;20447;-75
2021/08/15 12:41:27;;;;;;;4.33;3.33;;;27.40;98.00;;;;;;5091472;28;20451;-75
2021/08/15 12:44:09;;;;;;;3.80;2.67;;;27.50;98.00;;;;;;5091682;28;20488;-75
2021/08/15 12:46:37;;;;;;;3.53;2.73;;;27.50;98.00;;;;;;5091333;28;20539;-76
2021/08/15 12:49:22;;;;;;;3.67;2.50;;;27.60;98.00;;;;;;5091436;28;20490;-75
2021/08/15 12:51:50;;;;;;;2.80;2.10;;;27.50;98.00;;;;;;5091226;28;20460;-75
2021/08/15 12:54:18;;;;;;;4.03;2.60;;;27.50;98.00;;;;;;5091140;28;20456;-76
2021/08/15 12:56:45;;;;;;;3.57;2.40;;;27.40;98.00;;;;;;5090982;28;20491;-75
2021/08/15 12:59:13;;;;;;;2.57;2.40;;;27.30;98.00;;;;;;5091264;28;20553;-75